Vick, Arkansas
Current Conditions -  °F | °C
As of 10:53 PM on Saturday 25 Oct 2014 (Local Time) from KLLQ Reporting Station
Clear Clear  
Wind Chill: 70°   Ceiling: Unl
Heat Index: 70°   Visibility: 10mi
Dew Point: 64°   Wind: 6mph
Humidity: 81%   Direction: 250°WSW
Pressure: 30.05"   Gusts: NA
Location:  33.37°N, 92.1129°W
Report Text: KLLQ 260353Z AUTO 25005KT 10SM CLR 21/18 A3005 RMK AO2 SLP173 T02110178
Loading
Personal Weather Stations






























Interactive Weather Map
Tropical Storm Tracking
New forecast layout! Learn more

10-Day Weather Forecast

Advertisements
Track Severe Weather on mobile